sensor_id;sensor_type;location;lat;lon;timestamp;pressure;altitude;pressure_sealevel;temperature;humidity
70198;BME280;57582;-34.876;138.628;2023-02-28T00:01:37;100782;;;21.83;52.73
70198;BME280;57582;-34.876;138.628;2023-02-28T00:04:36;100783;;;21.98;51.78
70198;BME280;57582;-34.876;138.628;2023-02-28T00:07:37;100782;;;22.21;51.87
70198;BME280;57582;-34.876;138.628;2023-02-28T00:10:36;100789;;;22.42;51.35
70198;BME280;57582;-34.876;138.628;2023-02-28T00:13:38;100774;;;22.33;51.04
70198;BME280;57582;-34.876;138.628;2023-02-28T00:16:36;100780;;;22.66;51.24
70198;BME280;57582;-34.876;138.628;2023-02-28T00:19:37;100783;;;22.85;49.76
70198;BME280;57582;-34.876;138.628;2023-02-28T00:22:37;100786;;;22.96;49.66
70198;BME280;57582;-34.876;138.628;2023-02-28T00:25:37;100783;;;23.15;49.43
70198;BME280;57582;-34.876;138.628;2023-02-28T00:28:36;100779;;;23.28;48.42
70198;BME280;57582;-34.876;138.628;2023-02-28T00:31:37;100784;;;23.37;48.42
70198;BME280;57582;-34.876;138.628;2023-02-28T00:34:36;100791;;;23.43;47.58
70198;BME280;57582;-34.876;138.628;2023-02-28T00:37:37;100789;;;23.42;48.11
70198;BME280;57582;-34.876;138.628;2023-02-28T00:40:36;100787;;;23.40;47.71
70198;BME280;57582;-34.876;138.628;2023-02-28T00:43:37;100776;;;23.37;48.25
70198;BME280;57582;-34.876;138.628;2023-02-28T00:46:37;100782;;;23.14;48.57
70198;BME280;57582;-34.876;138.628;2023-02-28T00:49:37;100771;;;23.17;48.56
70198;BME280;57582;-34.876;138.628;2023-02-28T00:52:36;100774;;;23.17;47.22
70198;BME280;57582;-34.876;138.628;2023-02-28T00:55:37;100780;;;22.96;48.47
70198;BME280;57582;-34.876;138.628;2023-02-28T00:58:36;100764;;;23.03;49.14
70198;BME280;57582;-34.876;138.628;2023-02-28T01:01:37;100762;;;23.23;49.03
70198;BME280;57582;-34.876;138.628;2023-02-28T01:04:36;100764;;;23.07;49.34
70198;BME280;57582;-34.876;138.628;2023-02-28T01:07:37;100768;;;23.27;49.28
70198;BME280;57582;-34.876;138.628;2023-02-28T01:10:36;100776;;;23.40;48.96
70198;BME280;57582;-34.876;138.628;2023-02-28T01:13:38;100770;;;23.55;48.20
70198;BME280;57582;-34.876;138.628;2023-02-28T01:16:36;100776;;;23.57;48.49
70198;BME280;57582;-34.876;138.628;2023-02-28T01:19:37;100773;;;23.52;48.27
70198;BME280;57582;-34.876;138.628;2023-02-28T01:22:36;100782;;;23.57;48.20
70198;BME280;57582;-34.876;138.628;2023-02-28T01:25:37;100780;;;23.66;48.09
70198;BME280;57582;-34.876;138.628;2023-02-28T01:28:36;100768;;;23.57;48.42
70198;BME280;57582;-34.876;138.628;2023-02-28T01:31:37;100774;;;23.62;48.42
70198;BME280;57582;-34.876;138.628;2023-02-28T01:34:36;100756;;;23.60;48.76
70198;BME280;57582;-34.876;138.628;2023-02-28T01:37:37;100755;;;23.59;48.46
70198;BME280;57582;-34.876;138.628;2023-02-28T01:40:36;100734;;;23.68;48.48
70198;BME280;57582;-34.876;138.628;2023-02-28T01:46:36;100737;;;23.86;48.51
70198;BME280;57582;-34.876;138.628;2023-02-28T01:49:37;100744;;;23.82;47.93
70198;BME280;57582;-34.876;138.628;2023-02-28T01:52:36;100730;;;23.97;47.49
70198;BME280;57582;-34.876;138.628;2023-02-28T01:55:37;100717;;;23.79;47.63
70198;BME280;57582;-34.876;138.628;2023-02-28T01:58:36;100703;;;23.92;47.15
70198;BME280;57582;-34.876;138.628;2023-02-28T02:01:37;100709;;;23.89;47.85
70198;BME280;57582;-34.876;138.628;2023-02-28T02:04:39;100707;;;23.83;47.22
70198;BME280;57582;-34.876;138.628;2023-02-28T02:07:38;100698;;;23.76;47.44
70198;BME280;57582;-34.876;138.628;2023-02-28T02:10:41;100701;;;23.81;47.56
70198;BME280;57582;-34.876;138.628;2023-02-28T02:13:51;100692;;;23.82;47.09
70198;BME280;57582;-34.876;138.628;2023-02-28T02:37:48;100677;;;24.20;46.88
70198;BME280;57582;-34.876;138.628;2023-02-28T02:43:46;100659;;;24.49;46.68
70198;BME280;57582;-34.876;138.628;2023-02-28T02:46:37;100673;;;24.44;46.56
70198;BME280;57582;-34.876;138.628;2023-02-28T02:49:38;100671;;;24.50;46.12
70198;BME280;57582;-34.876;138.628;2023-02-28T02:52:39;100679;;;24.49;45.60
70198;BME280;57582;-34.876;138.628;2023-02-28T02:55:38;100682;;;24.45;45.80
70198;BME280;57582;-34.876;138.628;2023-02-28T02:58:37;100679;;;24.56;45.58
70198;BME280;57582;-34.876;138.628;2023-02-28T03:01:37;100661;;;24.59;45.08
70198;BME280;57582;-34.876;138.628;2023-02-28T03:04:40;100664;;;24.62;45.13
70198;BME280;57582;-34.876;138.628;2023-02-28T03:07:37;100658;;;24.70;43.13
70198;BME280;57582;-34.876;138.628;2023-02-28T03:10:39;100665;;;24.51;45.48
70198;BME280;57582;-34.876;138.628;2023-02-28T03:22:40;100676;;;23.63;47.85
70198;BME280;57582;-34.876;138.628;2023-02-28T03:26:04;100681;;;23.52;48.39
70198;BME280;57582;-34.876;138.628;2023-02-28T03:29:09;100668;;;23.41;48.86
70198;BME280;57582;-34.876;138.628;2023-02-28T03:31:38;100663;;;23.35;48.32
70198;BME280;57582;-34.876;138.628;2023-02-28T03:34:38;100660;;;23.30;48.45
70198;BME280;57582;-34.876;138.628;2023-02-28T03:37:38;100662;;;23.32;48.70
70198;BME280;57582;-34.876;138.628;2023-02-28T03:40:37;100668;;;23.37;48.43
70198;BME280;57582;-34.876;138.628;2023-02-28T03:43:38;100680;;;23.28;48.49
70198;BME280;57582;-34.876;138.628;2023-02-28T03:46:38;100689;;;23.30;48.47
70198;BME280;57582;-34.876;138.628;2023-02-28T03:49:40;100689;;;23.26;49.02
70198;BME280;57582;-34.876;138.628;2023-02-28T03:52:38;100700;;;23.32;48.68
70198;BME280;57582;-34.876;138.628;2023-02-28T03:55:38;100700;;;23.43;48.21
70198;BME280;57582;-34.876;138.628;2023-02-28T04:04:37;100706;;;23.61;47.71
70198;BME280;57582;-34.876;138.628;2023-02-28T04:07:37;100701;;;23.68;47.62
70198;BME280;57582;-34.876;138.628;2023-02-28T04:10:37;100688;;;23.87;47.49
70198;BME280;57582;-34.876;138.628;2023-02-28T04:13:37;100677;;;24.08;46.92
70198;BME280;57582;-34.876;138.628;2023-02-28T04:16:38;100679;;;24.08;46.56
70198;BME280;57582;-34.876;138.628;2023-02-28T04:19:37;100673;;;23.82;46.36
70198;BME280;57582;-34.876;138.628;2023-02-28T04:22:37;100672;;;23.80;46.25
70198;BME280;57582;-34.876;138.628;2023-02-28T04:25:37;100691;;;23.75;46.42
70198;BME280;57582;-34.876;138.628;2023-02-28T04:28:37;100685;;;23.78;46.00
70198;BME280;57582;-34.876;138.628;2023-02-28T04:31:37;100672;;;23.79;45.72
70198;BME280;57582;-34.876;138.628;2023-02-28T04:34:37;100670;;;23.92;46.10
70198;BME280;57582;-34.876;138.628;2023-02-28T04:37:37;100680;;;23.93;45.91
70198;BME280;57582;-34.876;138.628;2023-02-28T04:40:37;100673;;;23.94;45.68
70198;BME280;57582;-34.876;138.628;2023-02-28T04:43:37;100661;;;24.00;46.11
70198;BME280;57582;-34.876;138.628;2023-02-28T04:46:37;100653;;;23.99;45.16
70198;BME280;57582;-34.876;138.628;2023-02-28T04:49:38;100655;;;23.93;45.10
70198;BME280;57582;-34.876;138.628;2023-02-28T04:52:37;100651;;;23.71;45.15
70198;BME280;57582;-34.876;138.628;2023-02-28T04:55:37;100652;;;23.67;45.56
70198;BME280;57582;-34.876;138.628;2023-02-28T04:58:37;100645;;;23.71;45.51
70198;BME280;57582;-34.876;138.628;2023-02-28T05:01:37;100642;;;23.57;44.72
70198;BME280;57582;-34.876;138.628;2023-02-28T05:04:37;100650;;;23.57;45.53
70198;BME280;57582;-34.876;138.628;2023-02-28T05:07:37;100644;;;23.67;45.01
70198;BME280;57582;-34.876;138.628;2023-02-28T05:10:37;100644;;;23.60;45.20
70198;BME280;57582;-34.876;138.628;2023-02-28T05:13:37;100638;;;23.71;45.50
70198;BME280;57582;-34.876;138.628;2023-02-28T05:16:37;100626;;;23.71;44.74
70198;BME280;57582;-34.876;138.628;2023-02-28T05:19:37;100639;;;23.82;44.61
70198;BME280;57582;-34.876;138.628;2023-02-28T05:22:37;100640;;;24.08;44.44
70198;BME280;57582;-34.876;138.628;2023-02-28T05:25:38;100646;;;24.38;43.96
70198;BME280;57582;-34.876;138.628;2023-02-28T05:28:37;100645;;;24.51;43.49
70198;BME280;57582;-34.876;138.628;2023-02-28T05:31:37;100636;;;24.52;43.24
70198;BME280;57582;-34.876;138.628;2023-02-28T05:34:37;100631;;;24.34;43.46
70198;BME280;57582;-34.876;138.628;2023-02-28T05:37:38;100626;;;24.19;43.59
70198;BME280;57582;-34.876;138.628;2023-02-28T05:40:38;100643;;;24.13;43.78
70198;BME280;57582;-34.876;138.628;2023-02-28T05:43:37;100644;;;24.05;43.18
70198;BME280;57582;-34.876;138.628;2023-02-28T05:46:37;100651;;;24.01;43.82
70198;BME280;57582;-34.876;138.628;2023-02-28T05:49:38;100646;;;23.91;43.91
70198;BME280;57582;-34.876;138.628;2023-02-28T05:52:37;100652;;;23.91;44.28
70198;BME280;57582;-34.876;138.628;2023-02-28T05:55:37;100642;;;23.74;44.23
70198;BME280;57582;-34.876;138.628;2023-02-28T05:58:37;100652;;;23.82;44.29
70198;BME280;57582;-34.876;138.628;2023-02-28T06:01:39;100658;;;23.88;43.94
70198;BME280;57582;-34.876;138.628;2023-02-28T06:04:37;100650;;;24.02;43.51
70198;BME280;57582;-34.876;138.628;2023-02-28T06:07:37;100646;;;23.81;43.99
70198;BME280;57582;-34.876;138.628;2023-02-28T06:10:37;100663;;;23.91;44.52
70198;BME280;57582;-34.876;138.628;2023-02-28T06:13:37;100670;;;23.84;44.18
70198;BME280;57582;-34.876;138.628;2023-02-28T06:16:37;100671;;;23.86;44.09
70198;BME280;57582;-34.876;138.628;2023-02-28T06:19:38;100685;;;23.88;44.00
70198;BME280;57582;-34.876;138.628;2023-02-28T06:22:37;100674;;;23.83;43.37
70198;BME280;57582;-34.876;138.628;2023-02-28T06:25:38;100676;;;23.62;43.65
70198;BME280;57582;-34.876;138.628;2023-02-28T06:28:37;100672;;;23.41;43.76
70198;BME280;57582;-34.876;138.628;2023-02-28T06:31:37;100667;;;23.31;44.52
70198;BME280;57582;-34.876;138.628;2023-02-28T06:34:37;100664;;;23.25;44.21
70198;BME280;57582;-34.876;138.628;2023-02-28T06:37:37;100669;;;23.23;44.65
70198;BME280;57582;-34.876;138.628;2023-02-28T06:40:37;100662;;;23.23;44.44
70198;BME280;57582;-34.876;138.628;2023-02-28T06:43:39;100665;;;23.26;44.37
70198;BME280;57582;-34.876;138.628;2023-02-28T06:46:38;100675;;;23.25;44.57
70198;BME280;57582;-34.876;138.628;2023-02-28T06:49:37;100670;;;23.26;43.75
70198;BME280;57582;-34.876;138.628;2023-02-28T06:52:37;100664;;;23.29;43.68
70198;BME280;57582;-34.876;138.628;2023-02-28T06:55:38;100666;;;23.25;43.73
70198;BME280;57582;-34.876;138.628;2023-02-28T06:58:37;100671;;;23.33;43.32
70198;BME280;57582;-34.876;138.628;2023-02-28T07:01:38;100669;;;23.28;42.70
70198;BME280;57582;-34.876;138.628;2023-02-28T07:04:37;100667;;;23.27;43.47
70198;BME280;57582;-34.876;138.628;2023-02-28T07:07:37;100669;;;23.40;42.98
70198;BME280;57582;-34.876;138.628;2023-02-28T07:10:37;100675;;;23.46;43.16
70198;BME280;57582;-34.876;138.628;2023-02-28T07:13:37;100677;;;23.57;42.24
70198;BME280;57582;-34.876;138.628;2023-02-28T07:16:37;100689;;;23.67;42.56
70198;BME280;57582;-34.876;138.628;2023-02-28T07:19:38;100680;;;23.88;43.04
70198;BME280;57582;-34.876;138.628;2023-02-28T07:22:37;100679;;;24.03;41.75
70198;BME280;57582;-34.876;138.628;2023-02-28T07:25:37;100695;;;23.94;41.72
70198;BME280;57582;-34.876;138.628;2023-02-28T07:28:37;100688;;;23.25;42.62
70198;BME280;57582;-34.876;138.628;2023-02-28T07:31:37;100696;;;22.88;43.95
70198;BME280;57582;-34.876;138.628;2023-02-28T07:34:37;100686;;;22.94;44.42
70198;BME280;57582;-34.876;138.628;2023-02-28T07:37:37;100697;;;23.14;43.60
70198;BME280;57582;-34.876;138.628;2023-02-28T07:40:37;100700;;;23.24;43.14
70198;BME280;57582;-34.876;138.628;2023-02-28T07:43:38;100702;;;23.25;42.65
70198;BME280;57582;-34.876;138.628;2023-02-28T07:46:37;100700;;;23.32;42.54
70198;BME280;57582;-34.876;138.628;2023-02-28T07:49:37;100706;;;23.21;42.26
70198;BME280;57582;-34.876;138.628;2023-02-28T07:52:37;100695;;;23.31;42.43
70198;BME280;57582;-34.876;138.628;2023-02-28T07:55:38;100693;;;23.33;41.57
70198;BME280;57582;-34.876;138.628;2023-02-28T07:58:37;100691;;;23.25;41.49
70198;BME280;57582;-34.876;138.628;2023-02-28T08:01:38;100708;;;23.17;41.73
70198;BME280;57582;-34.876;138.628;2023-02-28T08:04:37;100707;;;23.10;42.20
70198;BME280;57582;-34.876;138.628;2023-02-28T08:07:37;100705;;;23.14;42.45
70198;BME280;57582;-34.876;138.628;2023-02-28T08:10:37;100699;;;23.00;41.98
70198;BME280;57582;-34.876;138.628;2023-02-28T08:13:38;100697;;;22.89;42.27
70198;BME280;57582;-34.876;138.628;2023-02-28T08:16:37;100700;;;22.76;42.62
70198;BME280;57582;-34.876;138.628;2023-02-28T08:19:38;100700;;;22.76;42.65
70198;BME280;57582;-34.876;138.628;2023-02-28T08:22:37;100714;;;22.72;42.76
70198;BME280;57582;-34.876;138.628;2023-02-28T08:25:38;100716;;;22.61;43.11
70198;BME280;57582;-34.876;138.628;2023-02-28T08:28:37;100713;;;22.54;42.93
70198;BME280;57582;-34.876;138.628;2023-02-28T08:31:38;100712;;;22.40;43.28
70198;BME280;57582;-34.876;138.628;2023-02-28T08:34:38;100723;;;22.38;43.57
70198;BME280;57582;-34.876;138.628;2023-02-28T08:37:38;100734;;;22.30;43.56
70198;BME280;57582;-34.876;138.628;2023-02-28T08:40:37;100738;;;22.29;43.91
70198;BME280;57582;-34.876;138.628;2023-02-28T08:43:38;100747;;;22.23;44.19
70198;BME280;57582;-34.876;138.628;2023-02-28T08:46:37;100753;;;22.06;44.65
70198;BME280;57582;-34.876;138.628;2023-02-28T08:49:38;100759;;;21.94;44.97
70198;BME280;57582;-34.876;138.628;2023-02-28T08:52:37;100765;;;21.76;45.37
70198;BME280;57582;-34.876;138.628;2023-02-28T08:55:38;100762;;;21.69;45.55
70198;BME280;57582;-34.876;138.628;2023-02-28T08:58:38;100766;;;21.53;46.13
70198;BME280;57582;-34.876;138.628;2023-02-28T09:01:37;100783;;;21.29;47.19
70198;BME280;57582;-34.876;138.628;2023-02-28T09:04:37;100792;;;21.11;47.99
70198;BME280;57582;-34.876;138.628;2023-02-28T09:07:37;100805;;;20.84;48.73
70198;BME280;57582;-34.876;138.628;2023-02-28T09:10:37;100821;;;20.63;49.16
70198;BME280;57582;-34.876;138.628;2023-02-28T09:13:38;100819;;;20.48;49.01
70198;BME280;57582;-34.876;138.628;2023-02-28T09:16:37;100831;;;20.31;49.16
70198;BME280;57582;-34.876;138.628;2023-02-28T09:19:37;100830;;;20.14;49.17
70198;BME280;57582;-34.876;138.628;2023-02-28T09:22:37;100830;;;20.18;48.70
70198;BME280;57582;-34.876;138.628;2023-02-28T09:25:40;100839;;;20.14;48.24
70198;BME280;57582;-34.876;138.628;2023-02-28T09:28:37;100848;;;20.18;48.11
70198;BME280;57582;-34.876;138.628;2023-02-28T09:31:37;100853;;;20.17;48.03
70198;BME280;57582;-34.876;138.628;2023-02-28T09:34:37;100863;;;20.25;47.97
70198;BME280;57582;-34.876;138.628;2023-02-28T09:37:38;100855;;;20.20;48.21
70198;BME280;57582;-34.876;138.628;2023-02-28T09:40:39;100861;;;20.29;47.89
70198;BME280;57582;-34.876;138.628;2023-02-28T09:43:39;100859;;;20.18;48.10
70198;BME280;57582;-34.876;138.628;2023-02-28T09:46:39;100871;;;20.27;47.71
70198;BME280;57582;-34.876;138.628;2023-02-28T09:49:40;100885;;;20.27;47.73
70198;BME280;57582;-34.876;138.628;2023-02-28T09:52:37;100888;;;20.39;47.71
70198;BME280;57582;-34.876;138.628;2023-02-28T09:55:42;100889;;;20.54;47.42
70198;BME280;57582;-34.876;138.628;2023-02-28T10:13:46;100915;;;20.47;47.75
70198;BME280;57582;-34.876;138.628;2023-02-28T10:19:40;100929;;;20.28;48.79
70198;BME280;57582;-34.876;138.628;2023-02-28T10:22:50;100930;;;20.23;49.71
70198;BME280;57582;-34.876;138.628;2023-02-28T10:25:38;100925;;;20.16;50.32
70198;BME280;57582;-34.876;138.628;2023-02-28T10:28:37;100929;;;20.12;50.65
70198;BME280;57582;-34.876;138.628;2023-02-28T10:31:38;100934;;;20.02;51.34
70198;BME280;57582;-34.876;138.628;2023-02-28T10:34:37;100946;;;20.03;51.30
70198;BME280;57582;-34.876;138.628;2023-02-28T10:37:39;100961;;;20.15;51.09
70198;BME280;57582;-34.876;138.628;2023-02-28T10:40:37;100960;;;19.95;51.43
70198;BME280;57582;-34.876;138.628;2023-02-28T10:43:38;100968;;;20.00;51.67
70198;BME280;57582;-34.876;138.628;2023-02-28T10:46:37;100978;;;19.99;51.94
70198;BME280;57582;-34.876;138.628;2023-02-28T10:49:38;100992;;;20.03;52.11
70198;BME280;57582;-34.876;138.628;2023-02-28T10:52:38;100990;;;20.14;51.79
70198;BME280;57582;-34.876;138.628;2023-02-28T10:55:38;101001;;;20.10;52.26
70198;BME280;57582;-34.876;138.628;2023-02-28T10:58:47;101000;;;19.96;52.68
70198;BME280;57582;-34.876;138.628;2023-02-28T11:01:40;101002;;;19.49;53.89
70198;BME280;57582;-34.876;138.628;2023-02-28T11:04:37;101001;;;19.46;53.87
70198;BME280;57582;-34.876;138.628;2023-02-28T11:07:38;100998;;;19.47;53.76
70198;BME280;57582;-34.876;138.628;2023-02-28T11:10:37;101004;;;19.39;53.98
70198;BME280;57582;-34.876;138.628;2023-02-28T11:13:38;101002;;;19.53;53.75
70198;BME280;57582;-34.876;138.628;2023-02-28T11:16:37;101012;;;19.52;53.55
70198;BME280;57582;-34.876;138.628;2023-02-28T11:19:40;101021;;;19.57;53.49
70198;BME280;57582;-34.876;138.628;2023-02-28T11:22:38;101013;;;19.62;53.50
70198;BME280;57582;-34.876;138.628;2023-02-28T11:25:38;101029;;;19.71;53.23
70198;BME280;57582;-34.876;138.628;2023-02-28T11:28:39;101029;;;19.77;53.10
70198;BME280;57582;-34.876;138.628;2023-02-28T11:31:38;101029;;;19.81;53.05
70198;BME280;57582;-34.876;138.628;2023-02-28T11:34:38;101038;;;19.74;53.34
70198;BME280;57582;-34.876;138.628;2023-02-28T11:37:38;101031;;;19.69;53.51
70198;BME280;57582;-34.876;138.628;2023-02-28T11:46:41;101036;;;19.55;54.36
70198;BME280;57582;-34.876;138.628;2023-02-28T11:49:43;101038;;;19.42;54.39
70198;BME280;57582;-34.876;138.628;2023-02-28T11:55:41;101036;;;19.42;54.06
70198;BME280;57582;-34.876;138.628;2023-02-28T12:08:06;101042;;;19.06;54.39
70198;BME280;57582;-34.876;138.628;2023-02-28T12:11:35;101041;;;19.01;53.62
70198;BME280;57582;-34.876;138.628;2023-02-28T12:13:42;101040;;;18.95;53.81
70198;BME280;57582;-34.876;138.628;2023-02-28T12:28:40;101049;;;19.22;53.23
70198;BME280;57582;-34.876;138.628;2023-02-28T12:31:40;101036;;;19.17;53.37
70198;BME280;57582;-34.876;138.628;2023-02-28T12:34:42;101045;;;19.13;53.47
70198;BME280;57582;-34.876;138.628;2023-02-28T12:40:42;101052;;;19.48;53.46
70198;BME280;57582;-34.876;138.628;2023-02-28T12:43:40;101042;;;19.65;53.03
70198;BME280;57582;-34.876;138.628;2023-02-28T12:46:41;101044;;;19.75;52.73
70198;BME280;57582;-34.876;138.628;2023-02-28T12:49:41;101052;;;19.91;51.94
70198;BME280;57582;-34.876;138.628;2023-02-28T12:55:40;101051;;;20.20;50.81
70198;BME280;57582;-34.876;138.628;2023-02-28T13:01:49;101057;;;20.15;50.62
70198;BME280;57582;-34.876;138.628;2023-02-28T13:07:57;101055;;;20.03;50.97
70198;BME280;57582;-34.876;138.628;2023-02-28T13:10:39;101051;;;20.13;50.85
70198;BME280;57582;-34.876;138.628;2023-02-28T13:13:38;101064;;;20.21;50.49
70198;BME280;57582;-34.876;138.628;2023-02-28T13:19:40;101058;;;20.14;50.51
70198;BME280;57582;-34.876;138.628;2023-02-28T13:22:39;101069;;;20.09;50.57
70198;BME280;57582;-34.876;138.628;2023-02-28T13:34:39;101074;;;19.27;51.84
70198;BME280;57582;-34.876;138.628;2023-02-28T13:37:46;101071;;;19.16;52.21
70198;BME280;57582;-34.876;138.628;2023-02-28T13:40:38;101073;;;19.22;53.72
70198;BME280;57582;-34.876;138.628;2023-02-28T13:49:38;101053;;;19.77;50.67
70198;BME280;57582;-34.876;138.628;2023-02-28T13:52:38;101050;;;20.01;49.74
70198;BME280;57582;-34.876;138.628;2023-02-28T13:58:44;101039;;;20.22;47.76
70198;BME280;57582;-34.876;138.628;2023-02-28T14:04:43;101040;;;20.30;47.12
70198;BME280;57582;-34.876;138.628;2023-02-28T14:07:46;101034;;;20.36;46.76
70198;BME280;57582;-34.876;138.628;2023-02-28T14:13:39;101037;;;20.29;46.67
70198;BME280;57582;-34.876;138.628;2023-02-28T14:16:43;101034;;;19.93;47.69
70198;BME280;57582;-34.876;138.628;2023-02-28T14:19:38;101032;;;19.74;48.28
70198;BME280;57582;-34.876;138.628;2023-02-28T14:22:41;101030;;;19.58;48.84
70198;BME280;57582;-34.876;138.628;2023-02-28T14:25:48;101028;;;19.58;49.00
70198;BME280;57582;-34.876;138.628;2023-02-28T14:31:41;101038;;;19.35;49.66
70198;BME280;57582;-34.876;138.628;2023-02-28T14:37:39;101021;;;19.56;49.23
70198;BME280;57582;-34.876;138.628;2023-02-28T14:40:38;101025;;;19.49;49.03
70198;BME280;57582;-34.876;138.628;2023-02-28T14:43:47;101022;;;19.43;48.72
70198;BME280;57582;-34.876;138.628;2023-02-28T14:46:38;101022;;;19.40;48.66
70198;BME280;57582;-34.876;138.628;2023-02-28T14:49:42;101017;;;19.24;48.32
70198;BME280;57582;-34.876;138.628;2023-02-28T14:52:38;101010;;;19.17;48.29
70198;BME280;57582;-34.876;138.628;2023-02-28T14:55:43;101003;;;19.22;48.34
70198;BME280;57582;-34.876;138.628;2023-02-28T14:58:38;101005;;;19.27;48.33
70198;BME280;57582;-34.876;138.628;2023-02-28T15:01:38;101011;;;19.27;48.41
70198;BME280;57582;-34.876;138.628;2023-02-28T15:04:38;100992;;;19.30;48.39
70198;BME280;57582;-34.876;138.628;2023-02-28T15:07:39;100997;;;19.30;48.45
70198;BME280;57582;-34.876;138.628;2023-02-28T15:10:38;100997;;;19.17;48.77
70198;BME280;57582;-34.876;138.628;2023-02-28T15:16:39;100995;;;19.04;49.37
70198;BME280;57582;-34.876;138.628;2023-02-28T15:19:39;100995;;;19.08;49.17
70198;BME280;57582;-34.876;138.628;2023-02-28T15:22:38;100987;;;19.02;49.21
70198;BME280;57582;-34.876;138.628;2023-02-28T15:25:39;100988;;;18.97;49.59
70198;BME280;57582;-34.876;138.628;2023-02-28T15:28:38;100985;;;19.01;49.50
70198;BME280;57582;-34.876;138.628;2023-02-28T15:31:41;100972;;;19.08;49.50
70198;BME280;57582;-34.876;138.628;2023-02-28T15:34:40;100977;;;19.08;49.61
70198;BME280;57582;-34.876;138.628;2023-02-28T15:37:40;100964;;;19.14;49.43
70198;BME280;57582;-34.876;138.628;2023-02-28T15:40:40;100978;;;19.27;49.26
70198;BME280;57582;-34.876;138.628;2023-02-28T15:43:38;100968;;;19.34;49.15
70198;BME280;57582;-34.876;138.628;2023-02-28T15:46:40;100975;;;19.34;49.15
70198;BME280;57582;-34.876;138.628;2023-02-28T15:49:39;100971;;;19.42;49.13
70198;BME280;57582;-34.876;138.628;2023-02-28T15:52:39;100965;;;19.42;49.19
70198;BME280;57582;-34.876;138.628;2023-02-28T15:55:38;100966;;;19.48;49.09
70198;BME280;57582;-34.876;138.628;2023-02-28T15:58:38;100963;;;19.44;49.32
70198;BME280;57582;-34.876;138.628;2023-02-28T16:01:38;100972;;;19.30;49.80
70198;BME280;57582;-34.876;138.628;2023-02-28T16:04:53;100965;;;19.30;49.96
70198;BME280;57582;-34.876;138.628;2023-02-28T16:07:39;100970;;;18.99;50.65
70198;BME280;57582;-34.876;138.628;2023-02-28T16:10:38;100971;;;18.93;51.12
70198;BME280;57582;-34.876;138.628;2023-02-28T16:13:38;100966;;;19.03;51.05
70198;BME280;57582;-34.876;138.628;2023-02-28T16:16:41;100966;;;19.16;50.77
70198;BME280;57582;-34.876;138.628;2023-02-28T16:19:38;100971;;;19.24;50.63
70198;BME280;57582;-34.876;138.628;2023-02-28T16:22:38;100971;;;19.29;50.61
70198;BME280;57582;-34.876;138.628;2023-02-28T16:25:40;100968;;;19.34;50.54
70198;BME280;57582;-34.876;138.628;2023-02-28T16:28:38;100970;;;19.32;50.65
70198;BME280;57582;-34.876;138.628;2023-02-28T16:31:39;100971;;;19.22;50.96
70198;BME280;57582;-34.876;138.628;2023-02-28T16:34:38;100967;;;19.28;50.92
70198;BME280;57582;-34.876;138.628;2023-02-28T16:37:39;100966;;;19.36;50.70
70198;BME280;57582;-34.876;138.628;2023-02-28T16:40:38;100962;;;19.48;50.37
70198;BME280;57582;-34.876;138.628;2023-02-28T16:43:38;100958;;;19.57;50.21
70198;BME280;57582;-34.876;138.628;2023-02-28T16:46:38;100951;;;19.53;50.20
70198;BME280;57582;-34.876;138.628;2023-02-28T16:49:38;100936;;;19.41;50.24
70198;BME280;57582;-34.876;138.628;2023-02-28T16:52:38;100950;;;19.62;49.96
70198;BME280;57582;-34.876;138.628;2023-02-28T16:55:39;100945;;;19.64;49.83
70198;BME280;57582;-34.876;138.628;2023-02-28T16:58:38;100941;;;19.72;49.75
70198;BME280;57582;-34.876;138.628;2023-02-28T17:01:38;100935;;;19.77;49.74
70198;BME280;57582;-34.876;138.628;2023-02-28T17:04:38;100940;;;19.83;49.64
70198;BME280;57582;-34.876;138.628;2023-02-28T17:07:39;100942;;;19.79;49.71
70198;BME280;57582;-34.876;138.628;2023-02-28T17:10:38;100944;;;19.72;49.77
70198;BME280;57582;-34.876;138.628;2023-02-28T17:13:39;100940;;;19.73;50.07
70198;BME280;57582;-34.876;138.628;2023-02-28T17:16:38;100938;;;19.77;49.99
70198;BME280;57582;-34.876;138.628;2023-02-28T17:19:38;100939;;;19.82;50.20
70198;BME280;57582;-34.876;138.628;2023-02-28T17:22:38;100946;;;19.89;50.13
70198;BME280;57582;-34.876;138.628;2023-02-28T17:25:39;100945;;;19.91;50.00
70198;BME280;57582;-34.876;138.628;2023-02-28T17:28:38;100948;;;19.94;50.00
70198;BME280;57582;-34.876;138.628;2023-02-28T17:31:38;100947;;;19.93;50.02
70198;BME280;57582;-34.876;138.628;2023-02-28T17:34:38;100946;;;19.96;50.00
70198;BME280;57582;-34.876;138.628;2023-02-28T17:37:38;100955;;;19.93;50.03
70198;BME280;57582;-34.876;138.628;2023-02-28T17:40:38;100956;;;19.76;50.58
70198;BME280;57582;-34.876;138.628;2023-02-28T17:43:38;100954;;;19.72;50.86
70198;BME280;57582;-34.876;138.628;2023-02-28T17:46:38;100955;;;19.69;50.98
70198;BME280;57582;-34.876;138.628;2023-02-28T17:49:38;100959;;;19.68;50.88
70198;BME280;57582;-34.876;138.628;2023-02-28T17:52:38;100964;;;19.74;50.97
70198;BME280;57582;-34.876;138.628;2023-02-28T17:55:38;100961;;;19.79;50.90
70198;BME280;57582;-34.876;138.628;2023-02-28T17:58:38;100960;;;19.77;50.90